sensor_id;sensor_type;location;lat;lon;timestamp;P1;durP1;ratioP1;P2;durP2;ratioP2
6517;SDS011;3292;48.944;9.240;2022-10-03T00:03:43;17.47;;;14.63;;
6517;SDS011;3292;48.944;9.240;2022-10-03T00:06:21;23.00;;;15.70;;
6517;SDS011;3292;48.944;9.240;2022-10-03T00:08:58;19.33;;;16.47;;
6517;SDS011;3292;48.944;9.240;2022-10-03T00:11:48;19.90;;;16.40;;
6517;SDS011;3292;48.944;9.240;2022-10-03T00:14:27;20.13;;;16.63;;
6517;SDS011;3292;48.944;9.240;2022-10-03T00:17:04;24.30;;;17.83;;
6517;SDS011;3292;48.944;9.240;2022-10-03T00:19:37;22.97;;;17.80;;
6517;SDS011;3292;48.944;9.240;2022-10-03T00:22:16;20.97;;;17.10;;
6517;SDS011;3292;48.944;9.240;2022-10-03T00:24:54;21.67;;;16.87;;
6517;SDS011;3292;48.944;9.240;2022-10-03T00:27:34;24.33;;;18.13;;
6517;SDS011;3292;48.944;9.240;2022-10-03T00:30:11;19.13;;;16.23;;
6517;SDS011;3292;48.944;9.240;2022-10-03T00:32:45;20.60;;;17.33;;
6517;SDS011;3292;48.944;9.240;2022-10-03T00:35:28;22.47;;;18.17;;
6517;SDS011;3292;48.944;9.240;2022-10-03T00:38:19;22.60;;;17.83;;
6517;SDS011;3292;48.944;9.240;2022-10-03T00:41:05;22.27;;;17.80;;
6517;SDS011;3292;48.944;9.240;2022-10-03T00:44:12;22.10;;;17.67;;
6517;SDS011;3292;48.944;9.240;2022-10-03T00:47:07;24.30;;;18.17;;
6517;SDS011;3292;48.944;9.240;2022-10-03T00:49:59;22.70;;;16.30;;
6517;SDS011;3292;48.944;9.240;2022-10-03T00:52:46;21.07;;;17.03;;
6517;SDS011;3292;48.944;9.240;2022-10-03T00:55:26;19.10;;;15.70;;
6517;SDS011;3292;48.944;9.240;2022-10-03T00:58:09;19.20;;;16.30;;
6517;SDS011;3292;48.944;9.240;2022-10-03T01:00:54;21.93;;;18.17;;
6517;SDS011;3292;48.944;9.240;2022-10-03T01:03:30;19.77;;;16.47;;
6517;SDS011;3292;48.944;9.240;2022-10-03T01:06:07;25.23;;;18.60;;
6517;SDS011;3292;48.944;9.240;2022-10-03T01:09:08;23.87;;;18.73;;
6517;SDS011;3292;48.944;9.240;2022-10-03T01:11:59;25.37;;;18.63;;
6517;SDS011;3292;48.944;9.240;2022-10-03T01:15:04;23.40;;;18.80;;
6517;SDS011;3292;48.944;9.240;2022-10-03T01:17:46;25.17;;;18.10;;
6517;SDS011;3292;48.944;9.240;2022-10-03T01:20:26;21.43;;;18.50;;
6517;SDS011;3292;48.944;9.240;2022-10-03T01:23:13;22.13;;;16.60;;
6517;SDS011;3292;48.944;9.240;2022-10-03T01:26:00;21.33;;;17.10;;
6517;SDS011;3292;48.944;9.240;2022-10-03T01:28:40;23.10;;;18.23;;
6517;SDS011;3292;48.944;9.240;2022-10-03T01:31:32;22.20;;;17.40;;
6517;SDS011;3292;48.944;9.240;2022-10-03T01:34:21;20.93;;;17.73;;
6517;SDS011;3292;48.944;9.240;2022-10-03T01:36:55;25.20;;;18.10;;
6517;SDS011;3292;48.944;9.240;2022-10-03T01:39:31;20.37;;;17.33;;
6517;SDS011;3292;48.944;9.240;2022-10-03T01:42:05;25.07;;;17.60;;
6517;SDS011;3292;48.944;9.240;2022-10-03T01:44:40;22.60;;;18.80;;
6517;SDS011;3292;48.944;9.240;2022-10-03T01:47:22;24.27;;;19.07;;
6517;SDS011;3292;48.944;9.240;2022-10-03T01:49:59;27.80;;;19.60;;
6517;SDS011;3292;48.944;9.240;2022-10-03T01:52:36;27.20;;;18.33;;
6517;SDS011;3292;48.944;9.240;2022-10-03T01:55:13;23.97;;;17.57;;
6517;SDS011;3292;48.944;9.240;2022-10-03T01:57:48;26.63;;;17.93;;
6517;SDS011;3292;48.944;9.240;2022-10-03T02:00:27;23.37;;;17.80;;
6517;SDS011;3292;48.944;9.240;2022-10-03T02:03:03;24.80;;;18.03;;
6517;SDS011;3292;48.944;9.240;2022-10-03T02:05:37;26.60;;;17.23;;
6517;SDS011;3292;48.944;9.240;2022-10-03T02:08:15;21.47;;;16.63;;
6517;SDS011;3292;48.944;9.240;2022-10-03T02:10:52;21.77;;;16.83;;
6517;SDS011;3292;48.944;9.240;2022-10-03T02:13:24;18.57;;;14.57;;
6517;SDS011;3292;48.944;9.240;2022-10-03T02:16:03;19.23;;;14.70;;
6517;SDS011;3292;48.944;9.240;2022-10-03T02:18:37;15.47;;;13.87;;
6517;SDS011;3292;48.944;9.240;2022-10-03T02:21:10;16.30;;;13.70;;
6517;SDS011;3292;48.944;9.240;2022-10-03T02:23:43;16.17;;;13.07;;
6517;SDS011;3292;48.944;9.240;2022-10-03T02:29:18;21.00;;;14.23;;
6517;SDS011;3292;48.944;9.240;2022-10-03T02:35:24;17.83;;;14.70;;
6517;SDS011;3292;48.944;9.240;2022-10-03T02:41:22;18.17;;;14.27;;
6517;SDS011;3292;48.944;9.240;2022-10-03T02:50:25;16.53;;;13.63;;
6517;SDS011;3292;48.944;9.240;2022-10-03T02:53:20;17.73;;;14.57;;
6517;SDS011;3292;48.944;9.240;2022-10-03T02:59:20;18.27;;;14.70;;
6517;SDS011;3292;48.944;9.240;2022-10-03T03:02:16;19.77;;;15.47;;
6517;SDS011;3292;48.944;9.240;2022-10-03T03:05:12;18.30;;;15.20;;
6517;SDS011;3292;48.944;9.240;2022-10-03T03:07:55;20.63;;;14.93;;
6517;SDS011;3292;48.944;9.240;2022-10-03T03:10:58;19.33;;;15.53;;
6517;SDS011;3292;48.944;9.240;2022-10-03T03:17:05;18.03;;;15.33;;
6517;SDS011;3292;48.944;9.240;2022-10-03T03:19:50;18.30;;;15.07;;
6517;SDS011;3292;48.944;9.240;2022-10-03T03:22:41;20.73;;;15.53;;
6517;SDS011;3292;48.944;9.240;2022-10-03T03:25:36;23.10;;;15.37;;
6517;SDS011;3292;48.944;9.240;2022-10-03T03:28:16;21.43;;;15.97;;
6517;SDS011;3292;48.944;9.240;2022-10-03T03:30:55;18.70;;;15.00;;
6517;SDS011;3292;48.944;9.240;2022-10-03T03:33:32;21.97;;;15.80;;
6517;SDS011;3292;48.944;9.240;2022-10-03T03:36:08;20.87;;;16.77;;
6517;SDS011;3292;48.944;9.240;2022-10-03T03:38:48;17.97;;;14.90;;
6517;SDS011;3292;48.944;9.240;2022-10-03T03:41:26;19.23;;;15.33;;
6517;SDS011;3292;48.944;9.240;2022-10-03T03:44:23;22.20;;;16.37;;
6517;SDS011;3292;48.944;9.240;2022-10-03T03:47:24;19.27;;;15.63;;
6517;SDS011;3292;48.944;9.240;2022-10-03T03:53:15;22.17;;;17.27;;
6517;SDS011;3292;48.944;9.240;2022-10-03T03:56:14;19.97;;;15.50;;
6517;SDS011;3292;48.944;9.240;2022-10-03T03:59:02;21.77;;;16.33;;
6517;SDS011;3292;48.944;9.240;2022-10-03T04:01:48;19.90;;;15.77;;
6517;SDS011;3292;48.944;9.240;2022-10-03T04:04:41;21.13;;;16.30;;
6517;SDS011;3292;48.944;9.240;2022-10-03T04:07:19;20.73;;;15.47;;
6517;SDS011;3292;48.944;9.240;2022-10-03T04:12:55;21.60;;;15.90;;
6517;SDS011;3292;48.944;9.240;2022-10-03T04:15:42;19.50;;;15.73;;
6517;SDS011;3292;48.944;9.240;2022-10-03T04:19:02;21.13;;;15.53;;
6517;SDS011;3292;48.944;9.240;2022-10-03T04:21:36;21.33;;;15.87;;
6517;SDS011;3292;48.944;9.240;2022-10-03T04:24:18;22.90;;;17.83;;
6517;SDS011;3292;48.944;9.240;2022-10-03T04:27:03;20.40;;;16.53;;
6517;SDS011;3292;48.944;9.240;2022-10-03T04:29:56;25.10;;;16.40;;
6517;SDS011;3292;48.944;9.240;2022-10-03T04:35:47;22.20;;;16.17;;
6517;SDS011;3292;48.944;9.240;2022-10-03T04:38:42;19.13;;;15.20;;
6517;SDS011;3292;48.944;9.240;2022-10-03T04:41:21;21.13;;;16.00;;
6517;SDS011;3292;48.944;9.240;2022-10-03T04:44:04;17.57;;;15.30;;
6517;SDS011;3292;48.944;9.240;2022-10-03T04:46:49;19.73;;;16.17;;
6517;SDS011;3292;48.944;9.240;2022-10-03T04:49:22;23.63;;;16.40;;
6517;SDS011;3292;48.944;9.240;2022-10-03T04:51:56;20.93;;;15.60;;
6517;SDS011;3292;48.944;9.240;2022-10-03T04:54:29;22.07;;;15.80;;
6517;SDS011;3292;48.944;9.240;2022-10-03T04:57:10;22.70;;;16.00;;
6517;SDS011;3292;48.944;9.240;2022-10-03T04:59:47;18.33;;;14.87;;
6517;SDS011;3292;48.944;9.240;2022-10-03T05:02:24;20.93;;;17.23;;
6517;SDS011;3292;48.944;9.240;2022-10-03T05:05:06;24.40;;;17.00;;
6517;SDS011;3292;48.944;9.240;2022-10-03T05:07:44;22.43;;;16.63;;
6517;SDS011;3292;48.944;9.240;2022-10-03T05:10:19;22.87;;;17.60;;
6517;SDS011;3292;48.944;9.240;2022-10-03T05:12:56;24.70;;;17.47;;
6517;SDS011;3292;48.944;9.240;2022-10-03T05:15:38;20.33;;;16.70;;
6517;SDS011;3292;48.944;9.240;2022-10-03T05:18:19;22.47;;;16.97;;
6517;SDS011;3292;48.944;9.240;2022-10-03T05:20:55;23.70;;;17.73;;
6517;SDS011;3292;48.944;9.240;2022-10-03T05:23:39;24.53;;;17.70;;
6517;SDS011;3292;48.944;9.240;2022-10-03T05:26:23;26.60;;;16.50;;
6517;SDS011;3292;48.944;9.240;2022-10-03T05:29:00;21.07;;;16.83;;
6517;SDS011;3292;48.944;9.240;2022-10-03T05:31:39;23.03;;;17.07;;
6517;SDS011;3292;48.944;9.240;2022-10-03T05:34:22;22.80;;;17.03;;
6517;SDS011;3292;48.944;9.240;2022-10-03T05:37:08;21.77;;;17.03;;
6517;SDS011;3292;48.944;9.240;2022-10-03T05:39:57;22.27;;;16.37;;
6517;SDS011;3292;48.944;9.240;2022-10-03T05:42:34;19.80;;;16.23;;
6517;SDS011;3292;48.944;9.240;2022-10-03T05:45:21;21.90;;;17.50;;
6517;SDS011;3292;48.944;9.240;2022-10-03T05:47:59;29.97;;;20.20;;
6517;SDS011;3292;48.944;9.240;2022-10-03T05:50:56;31.77;;;20.93;;
6517;SDS011;3292;48.944;9.240;2022-10-03T05:53:54;34.40;;;19.60;;
6517;SDS011;3292;48.944;9.240;2022-10-03T05:56:57;32.60;;;20.00;;
6517;SDS011;3292;48.944;9.240;2022-10-03T06:05:53;28.53;;;19.33;;
6517;SDS011;3292;48.944;9.240;2022-10-03T06:11:17;24.37;;;19.43;;
6517;SDS011;3292;48.944;9.240;2022-10-03T06:14:06;28.20;;;19.40;;
6517;SDS011;3292;48.944;9.240;2022-10-03T06:16:52;30.10;;;19.77;;
6517;SDS011;3292;48.944;9.240;2022-10-03T06:19:34;26.20;;;19.40;;
6517;SDS011;3292;48.944;9.240;2022-10-03T06:22:23;27.43;;;20.37;;
6517;SDS011;3292;48.944;9.240;2022-10-03T06:28:29;31.63;;;20.83;;
6517;SDS011;3292;48.944;9.240;2022-10-03T06:34:54;26.93;;;20.30;;
6517;SDS011;3292;48.944;9.240;2022-10-03T06:37:43;30.00;;;20.00;;
6517;SDS011;3292;48.944;9.240;2022-10-03T06:40:59;24.30;;;18.20;;
6517;SDS011;3292;48.944;9.240;2022-10-03T06:43:49;26.43;;;18.93;;
6517;SDS011;3292;48.944;9.240;2022-10-03T06:46:43;25.90;;;18.57;;
6517;SDS011;3292;48.944;9.240;2022-10-03T06:49:34;28.70;;;18.97;;
6517;SDS011;3292;48.944;9.240;2022-10-03T06:52:23;25.53;;;19.60;;
6517;SDS011;3292;48.944;9.240;2022-10-03T06:55:23;26.73;;;18.57;;
6517;SDS011;3292;48.944;9.240;2022-10-03T06:58:18;23.60;;;18.67;;
6517;SDS011;3292;48.944;9.240;2022-10-03T07:04:24;24.10;;;18.47;;
6517;SDS011;3292;48.944;9.240;2022-10-03T07:07:08;27.00;;;18.10;;
6517;SDS011;3292;48.944;9.240;2022-10-03T07:13:02;27.30;;;20.40;;
6517;SDS011;3292;48.944;9.240;2022-10-03T07:15:44;23.93;;;18.43;;
6517;SDS011;3292;48.944;9.240;2022-10-03T07:18:38;25.10;;;17.97;;
6517;SDS011;3292;48.944;9.240;2022-10-03T07:21:34;25.23;;;17.70;;
6517;SDS011;3292;48.944;9.240;2022-10-03T07:27:49;22.20;;;16.57;;
6517;SDS011;3292;48.944;9.240;2022-10-03T07:30:23;21.60;;;15.70;;
6517;SDS011;3292;48.944;9.240;2022-10-03T07:39:09;17.50;;;14.00;;
6517;SDS011;3292;48.944;9.240;2022-10-03T07:42:09;18.63;;;12.83;;
6517;SDS011;3292;48.944;9.240;2022-10-03T07:51:21;19.80;;;13.40;;
6517;SDS011;3292;48.944;9.240;2022-10-03T07:56:56;22.17;;;13.40;;
6517;SDS011;3292;48.944;9.240;2022-10-03T07:59:58;17.37;;;12.10;;
6517;SDS011;3292;48.944;9.240;2022-10-03T08:05:58;13.87;;;11.77;;
6517;SDS011;3292;48.944;9.240;2022-10-03T08:08:51;15.40;;;11.43;;
6517;SDS011;3292;48.944;9.240;2022-10-03T08:11:54;13.67;;;10.70;;
6517;SDS011;3292;48.944;9.240;2022-10-03T08:14:45;16.53;;;11.40;;
6517;SDS011;3292;48.944;9.240;2022-10-03T08:23:21;17.40;;;10.87;;
6517;SDS011;3292;48.944;9.240;2022-10-03T08:26:17;18.90;;;10.30;;
6517;SDS011;3292;48.944;9.240;2022-10-03T08:28:58;14.07;;;10.30;;
6517;SDS011;3292;48.944;9.240;2022-10-03T08:44:22;16.97;;;10.33;;
6517;SDS011;3292;48.944;9.240;2022-10-03T08:53:24;15.87;;;9.47;;
6517;SDS011;3292;48.944;9.240;2022-10-03T08:56:13;15.80;;;9.53;;
6517;SDS011;3292;48.944;9.240;2022-10-03T08:58:56;13.03;;;8.53;;
6517;SDS011;3292;48.944;9.240;2022-10-03T09:01:46;13.03;;;7.57;;
6517;SDS011;3292;48.944;9.240;2022-10-03T09:07:39;11.87;;;6.30;;
6517;SDS011;3292;48.944;9.240;2022-10-03T09:10:36;13.77;;;7.67;;
6517;SDS011;3292;48.944;9.240;2022-10-03T09:17:04;15.77;;;7.23;;
6517;SDS011;3292;48.944;9.240;2022-10-03T09:22:59;14.37;;;6.23;;
6517;SDS011;3292;48.944;9.240;2022-10-03T09:25:57;9.63;;;6.60;;
6517;SDS011;3292;48.944;9.240;2022-10-03T09:28:47;11.67;;;6.73;;
6517;SDS011;3292;48.944;9.240;2022-10-03T09:31:41;12.43;;;7.33;;
6517;SDS011;3292;48.944;9.240;2022-10-03T09:34:58;9.93;;;7.13;;
6517;SDS011;3292;48.944;9.240;2022-10-03T09:37:55;15.07;;;7.73;;
6517;SDS011;3292;48.944;9.240;2022-10-03T09:43:57;20.00;;;8.57;;
6517;SDS011;3292;48.944;9.240;2022-10-03T09:46:58;11.80;;;8.50;;
6517;SDS011;3292;48.944;9.240;2022-10-03T09:50:13;10.87;;;8.70;;
6517;SDS011;3292;48.944;9.240;2022-10-03T09:53:11;14.67;;;8.63;;
6517;SDS011;3292;48.944;9.240;2022-10-03T09:59:07;12.57;;;8.20;;
6517;SDS011;3292;48.944;9.240;2022-10-03T10:01:55;13.87;;;7.87;;
6517;SDS011;3292;48.944;9.240;2022-10-03T10:04:41;13.00;;;8.20;;
6517;SDS011;3292;48.944;9.240;2022-10-03T10:10:37;13.27;;;7.60;;
6517;SDS011;3292;48.944;9.240;2022-10-03T10:13:22;13.27;;;7.17;;
6517;SDS011;3292;48.944;9.240;2022-10-03T10:16:21;12.30;;;7.40;;
6517;SDS011;3292;48.944;9.240;2022-10-03T10:19:25;10.23;;;6.43;;
6517;SDS011;3292;48.944;9.240;2022-10-03T10:22:21;13.37;;;7.33;;
6517;SDS011;3292;48.944;9.240;2022-10-03T10:28:22;13.13;;;6.60;;
6517;SDS011;3292;48.944;9.240;2022-10-03T10:31:27;11.47;;;5.77;;
6517;SDS011;3292;48.944;9.240;2022-10-03T10:37:53;10.40;;;5.77;;
6517;SDS011;3292;48.944;9.240;2022-10-03T10:41:04;9.20;;;5.33;;
6517;SDS011;3292;48.944;9.240;2022-10-03T10:44:09;9.40;;;5.33;;
6517;SDS011;3292;48.944;9.240;2022-10-03T10:47:10;8.50;;;4.90;;
6517;SDS011;3292;48.944;9.240;2022-10-03T10:56:57;11.37;;;4.67;;
6517;SDS011;3292;48.944;9.240;2022-10-03T10:59:43;8.90;;;3.80;;
6517;SDS011;3292;48.944;9.240;2022-10-03T11:12:28;9.43;;;4.03;;
6517;SDS011;3292;48.944;9.240;2022-10-03T11:15:32;6.63;;;3.57;;
6517;SDS011;3292;48.944;9.240;2022-10-03T11:34:02;7.73;;;3.80;;
6517;SDS011;3292;48.944;9.240;2022-10-03T11:37:03;8.63;;;4.20;;
6517;SDS011;3292;48.944;9.240;2022-10-03T11:39:37;7.73;;;4.07;;
6517;SDS011;3292;48.944;9.240;2022-10-03T11:42:17;8.03;;;3.80;;
6517;SDS011;3292;48.944;9.240;2022-10-03T11:44:55;7.80;;;3.83;;
6517;SDS011;3292;48.944;9.240;2022-10-03T11:47:34;9.93;;;3.90;;
6517;SDS011;3292;48.944;9.240;2022-10-03T11:50:22;8.30;;;3.93;;
6517;SDS011;3292;48.944;9.240;2022-10-03T11:55:44;7.40;;;3.80;;
6517;SDS011;3292;48.944;9.240;2022-10-03T11:58:22;7.00;;;3.73;;
6517;SDS011;3292;48.944;9.240;2022-10-03T12:00:58;8.53;;;3.77;;
6517;SDS011;3292;48.944;9.240;2022-10-03T12:03:43;7.23;;;3.70;;
6517;SDS011;3292;48.944;9.240;2022-10-03T12:06:15;7.63;;;3.60;;
6517;SDS011;3292;48.944;9.240;2022-10-03T12:09:14;5.97;;;3.47;;
6517;SDS011;3292;48.944;9.240;2022-10-03T12:11:45;8.00;;;3.77;;
6517;SDS011;3292;48.944;9.240;2022-10-03T12:14:23;6.53;;;3.33;;
6517;SDS011;3292;48.944;9.240;2022-10-03T12:17:00;5.37;;;3.70;;
6517;SDS011;3292;48.944;9.240;2022-10-03T12:19:33;8.43;;;4.00;;
6517;SDS011;3292;48.944;9.240;2022-10-03T12:22:06;5.97;;;3.57;;
6517;SDS011;3292;48.944;9.240;2022-10-03T12:24:42;6.97;;;3.27;;
6517;SDS011;3292;48.944;9.240;2022-10-03T12:27:12;6.93;;;3.60;;
6517;SDS011;3292;48.944;9.240;2022-10-03T12:29:51;5.03;;;3.50;;
6517;SDS011;3292;48.944;9.240;2022-10-03T12:32:29;8.07;;;4.03;;
6517;SDS011;3292;48.944;9.240;2022-10-03T12:35:07;8.63;;;4.20;;
6517;SDS011;3292;48.944;9.240;2022-10-03T12:37:46;7.80;;;3.50;;
6517;SDS011;3292;48.944;9.240;2022-10-03T12:40:25;7.40;;;3.47;;
6517;SDS011;3292;48.944;9.240;2022-10-03T12:43:04;5.43;;;3.27;;
6517;SDS011;3292;48.944;9.240;2022-10-03T12:45:46;7.67;;;3.53;;
6517;SDS011;3292;48.944;9.240;2022-10-03T12:48:32;4.67;;;3.30;;
6517;SDS011;3292;48.944;9.240;2022-10-03T12:51:08;7.30;;;3.60;;
6517;SDS011;3292;48.944;9.240;2022-10-03T12:53:49;5.50;;;2.80;;
6517;SDS011;3292;48.944;9.240;2022-10-03T12:56:27;6.70;;;2.90;;
6517;SDS011;3292;48.944;9.240;2022-10-03T12:59:03;4.60;;;2.87;;
6517;SDS011;3292;48.944;9.240;2022-10-03T13:01:57;7.63;;;3.37;;
6517;SDS011;3292;48.944;9.240;2022-10-03T13:04:44;5.10;;;2.97;;
6517;SDS011;3292;48.944;9.240;2022-10-03T13:07:22;6.07;;;3.13;;
6517;SDS011;3292;48.944;9.240;2022-10-03T13:10:00;5.40;;;3.00;;
6517;SDS011;3292;48.944;9.240;2022-10-03T13:12:37;6.93;;;3.53;;
6517;SDS011;3292;48.944;9.240;2022-10-03T13:15:33;6.30;;;3.23;;
6517;SDS011;3292;48.944;9.240;2022-10-03T13:18:17;6.83;;;3.57;;
6517;SDS011;3292;48.944;9.240;2022-10-03T13:20:57;7.03;;;3.40;;
6517;SDS011;3292;48.944;9.240;2022-10-03T13:23:37;4.87;;;3.00;;
6517;SDS011;3292;48.944;9.240;2022-10-03T13:26:10;6.10;;;3.20;;
6517;SDS011;3292;48.944;9.240;2022-10-03T13:28:46;5.10;;;2.77;;
6517;SDS011;3292;48.944;9.240;2022-10-03T13:31:36;5.53;;;2.97;;
6517;SDS011;3292;48.944;9.240;2022-10-03T13:34:16;3.63;;;2.43;;
6517;SDS011;3292;48.944;9.240;2022-10-03T13:36:48;3.80;;;2.80;;
6517;SDS011;3292;48.944;9.240;2022-10-03T13:39:21;8.17;;;2.90;;
6517;SDS011;3292;48.944;9.240;2022-10-03T13:42:05;8.20;;;6.93;;
6517;SDS011;3292;48.944;9.240;2022-10-03T13:44:39;7.43;;;2.97;;
6517;SDS011;3292;48.944;9.240;2022-10-03T13:50:12;6.17;;;3.20;;
6517;SDS011;3292;48.944;9.240;2022-10-03T13:52:44;6.60;;;2.70;;
6517;SDS011;3292;48.944;9.240;2022-10-03T13:55:17;5.60;;;2.90;;
6517;SDS011;3292;48.944;9.240;2022-10-03T13:57:54;5.07;;;3.20;;
6517;SDS011;3292;48.944;9.240;2022-10-03T14:01:00;6.47;;;3.27;;
6517;SDS011;3292;48.944;9.240;2022-10-03T14:03:42;5.17;;;2.97;;
6517;SDS011;3292;48.944;9.240;2022-10-03T14:06:18;7.20;;;2.90;;
6517;SDS011;3292;48.944;9.240;2022-10-03T14:12:01;7.23;;;3.57;;
6517;SDS011;3292;48.944;9.240;2022-10-03T14:14:44;7.43;;;3.20;;
6517;SDS011;3292;48.944;9.240;2022-10-03T14:17:24;8.47;;;3.33;;
6517;SDS011;3292;48.944;9.240;2022-10-03T14:20:03;6.23;;;3.07;;
6517;SDS011;3292;48.944;9.240;2022-10-03T14:22:43;7.13;;;3.07;;
6517;SDS011;3292;48.944;9.240;2022-10-03T14:25:19;5.57;;;3.20;;
6517;SDS011;3292;48.944;9.240;2022-10-03T14:27:52;6.33;;;3.20;;
6517;SDS011;3292;48.944;9.240;2022-10-03T14:30:21;5.07;;;3.00;;
6517;SDS011;3292;48.944;9.240;2022-10-03T14:35:40;6.83;;;3.07;;
6517;SDS011;3292;48.944;9.240;2022-10-03T14:38:29;7.07;;;3.07;;
6517;SDS011;3292;48.944;9.240;2022-10-03T14:41:27;6.70;;;3.20;;
6517;SDS011;3292;48.944;9.240;2022-10-03T14:44:11;4.37;;;2.70;;
6517;SDS011;3292;48.944;9.240;2022-10-03T14:46:43;5.03;;;3.03;;
6517;SDS011;3292;48.944;9.240;2022-10-03T14:49:16;8.57;;;3.33;;
6517;SDS011;3292;48.944;9.240;2022-10-03T14:51:46;5.23;;;2.90;;
6517;SDS011;3292;48.944;9.240;2022-10-03T14:54:18;5.80;;;2.53;;
6517;SDS011;3292;48.944;9.240;2022-10-03T14:56:48;5.63;;;2.90;;
6517;SDS011;3292;48.944;9.240;2022-10-03T14:59:19;4.50;;;2.80;;
6517;SDS011;3292;48.944;9.240;2022-10-03T15:01:48;10.60;;;3.13;;
6517;SDS011;3292;48.944;9.240;2022-10-03T15:04:23;4.53;;;2.67;;
6517;SDS011;3292;48.944;9.240;2022-10-03T15:06:54;3.57;;;2.70;;
6517;SDS011;3292;48.944;9.240;2022-10-03T15:09:25;6.03;;;2.80;;
6517;SDS011;3292;48.944;9.240;2022-10-03T15:11:58;4.70;;;2.80;;
6517;SDS011;3292;48.944;9.240;2022-10-03T15:14:33;8.97;;;3.00;;
6517;SDS011;3292;48.944;9.240;2022-10-03T15:17:04;7.73;;;3.30;;
6517;SDS011;3292;48.944;9.240;2022-10-03T15:19:43;7.27;;;3.00;;
6517;SDS011;3292;48.944;9.240;2022-10-03T15:22:20;6.00;;;2.90;;
6517;SDS011;3292;48.944;9.240;2022-10-03T15:24:57;6.37;;;2.80;;
6517;SDS011;3292;48.944;9.240;2022-10-03T15:27:29;5.50;;;3.10;;
6517;SDS011;3292;48.944;9.240;2022-10-03T15:29:59;5.50;;;2.73;;
6517;SDS011;3292;48.944;9.240;2022-10-03T15:32:30;4.10;;;2.60;;
6517;SDS011;3292;48.944;9.240;2022-10-03T15:35:02;8.10;;;2.90;;
6517;SDS011;3292;48.944;9.240;2022-10-03T15:37:32;5.67;;;2.47;;
6517;SDS011;3292;48.944;9.240;2022-10-03T15:40:06;6.40;;;2.63;;
6517;SDS011;3292;48.944;9.240;2022-10-03T15:42:42;5.73;;;2.70;;
6517;SDS011;3292;48.944;9.240;2022-10-03T15:45:18;6.00;;;2.80;;
6517;SDS011;3292;48.944;9.240;2022-10-03T15:47:51;5.40;;;2.60;;
6517;SDS011;3292;48.944;9.240;2022-10-03T15:50:22;3.93;;;2.63;;
6517;SDS011;3292;48.944;9.240;2022-10-03T15:52:52;3.23;;;2.70;;
6517;SDS011;3292;48.944;9.240;2022-10-03T15:55:22;4.73;;;2.50;;
6517;SDS011;3292;48.944;9.240;2022-10-03T15:57:52;4.73;;;2.50;;
6517;SDS011;3292;48.944;9.240;2022-10-03T16:00:27;3.83;;;2.87;;
6517;SDS011;3292;48.944;9.240;2022-10-03T16:02:59;5.97;;;2.77;;
6517;SDS011;3292;48.944;9.240;2022-10-03T16:05:33;6.73;;;2.87;;
6517;SDS011;3292;48.944;9.240;2022-10-03T16:08:03;5.57;;;3.20;;
6517;SDS011;3292;48.944;9.240;2022-10-03T16:10:35;6.53;;;2.90;;
6517;SDS011;3292;48.944;9.240;2022-10-03T16:13:05;4.30;;;2.83;;
6517;SDS011;3292;48.944;9.240;2022-10-03T16:18:47;4.40;;;2.70;;
6517;SDS011;3292;48.944;9.240;2022-10-03T16:21:24;4.60;;;2.63;;
6517;SDS011;3292;48.944;9.240;2022-10-03T16:24:04;4.73;;;2.73;;
6517;SDS011;3292;48.944;9.240;2022-10-03T16:26:33;4.20;;;2.70;;
6517;SDS011;3292;48.944;9.240;2022-10-03T16:29:10;2.97;;;2.43;;
6517;SDS011;3292;48.944;9.240;2022-10-03T16:31:51;4.30;;;2.53;;
6517;SDS011;3292;48.944;9.240;2022-10-03T16:34:22;5.23;;;2.90;;
6517;SDS011;3292;48.944;9.240;2022-10-03T16:36:51;3.73;;;2.37;;
6517;SDS011;3292;48.944;9.240;2022-10-03T16:39:19;4.60;;;2.87;;
6517;SDS011;3292;48.944;9.240;2022-10-03T16:41:50;4.90;;;2.80;;
6517;SDS011;3292;48.944;9.240;2022-10-03T16:44:21;7.07;;;2.87;;
6517;SDS011;3292;48.944;9.240;2022-10-03T16:46:53;3.37;;;2.70;;
6517;SDS011;3292;48.944;9.240;2022-10-03T16:49:29;4.90;;;3.00;;
6517;SDS011;3292;48.944;9.240;2022-10-03T16:52:19;5.33;;;3.90;;
6517;SDS011;3292;48.944;9.240;2022-10-03T16:54:55;5.87;;;3.60;;
6517;SDS011;3292;48.944;9.240;2022-10-03T16:57:28;8.00;;;3.83;;
6517;SDS011;3292;48.944;9.240;2022-10-03T17:00:02;4.57;;;3.87;;
6517;SDS011;3292;48.944;9.240;2022-10-03T17:02:33;4.83;;;3.03;;
6517;SDS011;3292;48.944;9.240;2022-10-03T17:05:03;5.97;;;3.20;;
6517;SDS011;3292;48.944;9.240;2022-10-03T17:07:37;4.10;;;3.20;;
6517;SDS011;3292;48.944;9.240;2022-10-03T17:10:16;4.53;;;3.27;;
6517;SDS011;3292;48.944;9.240;2022-10-03T17:12:54;6.27;;;3.67;;
6517;SDS011;3292;48.944;9.240;2022-10-03T17:15:25;4.00;;;3.60;;
6517;SDS011;3292;48.944;9.240;2022-10-03T17:17:57;4.63;;;3.50;;
6517;SDS011;3292;48.944;9.240;2022-10-03T17:20:36;4.20;;;3.63;;
6517;SDS011;3292;48.944;9.240;2022-10-03T17:23:09;4.80;;;4.30;;
6517;SDS011;3292;48.944;9.240;2022-10-03T17:25:41;5.23;;;4.43;;
6517;SDS011;3292;48.944;9.240;2022-10-03T17:28:17;6.00;;;4.90;;
6517;SDS011;3292;48.944;9.240;2022-10-03T17:30:54;7.40;;;4.57;;
6517;SDS011;3292;48.944;9.240;2022-10-03T17:33:29;5.23;;;4.67;;
6517;SDS011;3292;48.944;9.240;2022-10-03T17:36:02;7.77;;;5.20;;
6517;SDS011;3292;48.944;9.240;2022-10-03T17:39:01;7.47;;;5.57;;
6517;SDS011;3292;48.944;9.240;2022-10-03T17:41:31;9.57;;;6.23;;
6517;SDS011;3292;48.944;9.240;2022-10-03T17:44:06;7.30;;;5.80;;
6517;SDS011;3292;48.944;9.240;2022-10-03T17:46:42;8.37;;;6.60;;
6517;SDS011;3292;48.944;9.240;2022-10-03T17:49:21;6.83;;;6.03;;
6517;SDS011;3292;48.944;9.240;2022-10-03T17:52:01;7.13;;;5.60;;
6517;SDS011;3292;48.944;9.240;2022-10-03T17:54:29;8.47;;;6.17;;
6517;SDS011;3292;48.944;9.240;2022-10-03T17:57:04;7.53;;;6.10;;
6517;SDS011;3292;48.944;9.240;2022-10-03T17:59:39;7.27;;;5.37;;
6517;SDS011;3292;48.944;9.240;2022-10-03T18:02:14;8.33;;;6.07;;
6517;SDS011;3292;48.944;9.240;2022-10-03T18:04:46;9.80;;;7.23;;
6517;SDS011;3292;48.944;9.240;2022-10-03T18:07:20;11.43;;;9.70;;
6517;SDS011;3292;48.944;9.240;2022-10-03T18:09:50;10.53;;;8.37;;
6517;SDS011;3292;48.944;9.240;2022-10-03T18:12:20;9.57;;;7.63;;
6517;SDS011;3292;48.944;9.240;2022-10-03T18:15:12;12.07;;;8.43;;
6517;SDS011;3292;48.944;9.240;2022-10-03T18:18:06;10.67;;;8.07;;
6517;SDS011;3292;48.944;9.240;2022-10-03T18:21:11;9.50;;;7.27;;
6517;SDS011;3292;48.944;9.240;2022-10-03T18:23:49;13.97;;;9.67;;
6517;SDS011;3292;48.944;9.240;2022-10-03T18:26:32;12.30;;;9.07;;
6517;SDS011;3292;48.944;9.240;2022-10-03T18:29:09;8.93;;;8.03;;
6517;SDS011;3292;48.944;9.240;2022-10-03T18:31:50;11.03;;;8.87;;
6517;SDS011;3292;48.944;9.240;2022-10-03T18:34:23;11.70;;;9.47;;
6517;SDS011;3292;48.944;9.240;2022-10-03T18:37:00;18.30;;;14.33;;
6517;SDS011;3292;48.944;9.240;2022-10-03T18:39:41;18.73;;;14.30;;
6517;SDS011;3292;48.944;9.240;2022-10-03T18:42:10;13.30;;;9.70;;
6517;SDS011;3292;48.944;9.240;2022-10-03T18:44:37;17.57;;;11.00;;
6517;SDS011;3292;48.944;9.240;2022-10-03T18:47:12;13.20;;;9.37;;
6517;SDS011;3292;48.944;9.240;2022-10-03T18:49:53;12.03;;;10.90;;
6517;SDS011;3292;48.944;9.240;2022-10-03T18:52:30;15.17;;;9.57;;
6517;SDS011;3292;48.944;9.240;2022-10-03T18:55:03;11.67;;;10.07;;
6517;SDS011;3292;48.944;9.240;2022-10-03T18:57:40;12.40;;;8.80;;
6517;SDS011;3292;48.944;9.240;2022-10-03T19:00:15;11.77;;;8.30;;
6517;SDS011;3292;48.944;9.240;2022-10-03T19:02:46;14.17;;;8.13;;
6517;SDS011;3292;48.944;9.240;2022-10-03T19:05:18;11.37;;;8.33;;
6517;SDS011;3292;48.944;9.240;2022-10-03T19:07:50;9.70;;;8.10;;
6517;SDS011;3292;48.944;9.240;2022-10-03T19:10:25;16.27;;;11.27;;
6517;SDS011;3292;48.944;9.240;2022-10-03T19:13:02;11.50;;;10.33;;
6517;SDS011;3292;48.944;9.240;2022-10-03T19:15:39;13.27;;;9.70;;
6517;SDS011;3292;48.944;9.240;2022-10-03T19:18:18;12.00;;;8.77;;
6517;SDS011;3292;48.944;9.240;2022-10-03T19:20:52;9.93;;;8.93;;
6517;SDS011;3292;48.944;9.240;2022-10-03T19:23:23;10.87;;;8.70;;
6517;SDS011;3292;48.944;9.240;2022-10-03T19:25:54;12.40;;;9.10;;